Time;durP1;ratioP1;P1;durP2;ratioP2;P2;SDS_P1;SDS_P2;PMS_P1;PMS_P2;Temp;Humidity;BMP_temperature;BMP_pressure;BME280_temperature;BME280_humidity;BME280_pressure;Samples;Min_cycle;Max_cycle;Signal;HPM_P1;HPM_P2
2023/11/12 00:02:15;;;;;;;2.80;2.20;;;;;;;21.42;51.53;96120.98;106953;1254;61346;-51
2023/11/12 00:04:43;;;;;;;2.40;2.20;;;;;;;21.43;51.39;96118.63;105901;1256;74351;-49
2023/11/12 00:07:11;;;;;;;2.80;2.30;;;;;;;21.44;51.42;96121.58;105935;1256;66236;-48
2023/11/12 00:09:39;;;;;;;2.50;2.30;;;;;;;21.45;51.36;96120.96;105826;1254;72684;-48
2023/11/12 00:12:08;;;;;;;2.80;2.50;;;;;;;21.45;51.32;96117.85;105945;1256;61208;-48
2023/11/12 00:14:35;;;;;;;4.20;2.40;;;;;;;21.44;51.36;96123.22;105772;1254;61234;-50
2023/11/12 00:17:03;;;;;;;2.80;2.40;;;;;;;21.45;51.31;96121.20;105665;1254;74566;-49
2023/11/12 00:19:32;;;;;;;3.00;2.40;;;;;;;21.45;51.24;96122.35;105907;1256;65393;-49
2023/11/12 00:22:00;;;;;;;2.70;2.30;;;;;;;21.44;51.21;96119.02;105885;1254;72654;-49
2023/11/12 00:24:28;;;;;;;2.60;2.30;;;;;;;21.44;51.26;96120.11;105865;1256;61234;-49
2023/11/12 00:26:55;;;;;;;3.30;2.20;;;;;;;21.43;51.14;96119.02;105925;1254;61313;-48
2023/11/12 00:29:22;;;;;;;2.50;2.30;;;;;;;21.44;51.31;96117.08;105802;1254;74784;-48
2023/11/12 00:31:50;;;;;;;2.70;2.30;;;;;;;21.43;51.38;96113.65;105766;1257;64747;-48
2023/11/12 00:34:17;;;;;;;2.70;2.40;;;;;;;21.43;51.28;96113.20;105839;1254;73107;-48
2023/11/12 00:36:45;;;;;;;2.40;2.20;;;;;;;21.43;51.40;96108.98;105721;1256;61231;-48
2023/11/12 00:39:12;;;;;;;2.50;2.20;;;;;;;21.42;51.11;96105.42;105696;1254;61342;-48
2023/11/12 00:41:40;;;;;;;2.70;2.40;;;;;;;21.42;51.27;96103.40;105911;1254;74462;-48
2023/11/12 00:44:10;;;;;;;2.60;2.40;;;;;;;21.42;51.25;96101.69;105909;1256;65154;-48
2023/11/12 00:46:40;;;;;;;2.60;2.30;;;;;;;21.41;51.36;96097.96;105692;1254;72552;-48
2023/11/12 00:49:08;;;;;;;2.40;2.20;;;;;;;21.41;51.24;96097.64;105854;1254;61247;-49
2023/11/12 00:51:36;;;;;;;3.40;2.60;;;;;;;21.41;51.42;96088.48;105768;1254;61342;-49
2023/11/12 00:54:03;;;;;;;2.80;2.50;;;;;;;21.41;51.36;96090.96;105759;1256;74666;-48
2023/11/12 00:56:32;;;;;;;2.40;2.20;;;;;;;21.40;51.28;96087.09;105722;1256;65998;-48
2023/11/12 00:58:59;;;;;;;2.30;2.10;;;;;;;21.40;51.39;96086.92;105633;1254;72503;-48
2023/11/12 01:01:27;;;;;;;2.90;2.30;;;;;;;21.40;51.23;96084.29;105547;1256;61265;-48
2023/11/12 01:03:54;;;;;;;2.60;2.30;;;;;;;21.40;51.34;96083.20;105599;1253;61464;-48
2023/11/12 01:06:22;;;;;;;2.50;2.20;;;;;;;21.40;51.34;96082.26;105520;1254;74432;-48
2023/11/12 01:08:50;;;;;;;3.20;2.60;;;;;;;21.40;51.44;96079.22;105639;1253;64920;-49
2023/11/12 01:11:17;;;;;;;2.70;2.40;;;;;;;21.40;51.32;96078.84;105638;1257;72650;-49
2023/11/12 01:13:44;;;;;;;2.60;2.40;;;;;;;21.40;51.47;96076.50;105916;1256;61198;-49
2023/11/12 01:16:12;;;;;;;2.90;2.60;;;;;;;21.40;51.36;96074.72;105920;1254;61329;-49
2023/11/12 01:18:40;;;;;;;2.70;2.50;;;;;;;21.39;51.37;96074.95;105895;1254;74273;-49
2023/11/12 01:21:08;;;;;;;3.20;2.40;;;;;;;21.39;51.32;96074.25;105903;1256;66680;-48
2023/11/12 01:23:36;;;;;;;2.50;2.30;;;;;;;21.39;51.22;96075.74;105672;1256;71189;-48
2023/11/12 01:26:04;;;;;;;3.10;2.60;;;;;;;21.39;51.28;96072.39;105689;1256;61266;-49
2023/11/12 01:28:34;;;;;;;2.60;2.40;;;;;;;21.38;51.35;96074.19;105890;1253;61434;-48
2023/11/12 01:31:02;;;;;;;2.90;2.60;;;;;;;21.38;51.32;96076.60;105660;1257;74350;-49
2023/11/12 01:33:29;;;;;;;3.20;2.30;;;;;;;21.38;51.26;96079.87;105475;1253;66024;-49
2023/11/12 01:35:57;;;;;;;2.70;2.30;;;;;;;21.38;51.25;96083.60;105525;1254;72692;-49
2023/11/12 01:38:24;;;;;;;2.70;2.50;;;;;;;21.38;51.17;96087.57;105615;1257;61343;-49
2023/11/12 01:40:53;;;;;;;3.10;2.80;;;;;;;21.37;51.31;96086.41;105889;1253;61253;-49
2023/11/12 01:43:20;;;;;;;3.80;2.90;;;;;;;21.38;51.30;96085.31;105896;1256;74583;-49
2023/11/12 01:45:49;;;;;;;4.20;2.80;;;;;;;21.37;51.43;96085.55;105930;1256;66317;-49
2023/11/12 01:48:16;;;;;;;3.10;2.60;;;;;;;21.37;51.45;96081.83;105689;1254;72643;-49
2023/11/12 01:50:44;;;;;;;2.80;2.30;;;;;;;21.37;51.25;96083.22;105980;1253;61254;-49
2023/11/12 01:53:13;;;;;;;2.50;2.30;;;;;;;21.37;51.34;96078.16;105921;1254;61330;-49
2023/11/12 01:55:40;;;;;;;2.90;2.40;;;;;;;21.36;51.39;96080.02;105867;1251;74605;-48
2023/11/12 01:58:09;;;;;;;2.90;2.20;;;;;;;21.36;51.26;96077.40;105670;1257;65838;-50
2023/11/12 02:00:40;;;;;;;2.80;2.50;;;;;;;21.37;51.21;96079.95;105796;1254;71391;-49
2023/11/12 02:03:09;;;;;;;2.50;2.10;;;;;;;21.36;51.33;96078.64;105512;1257;61332;-49
2023/11/12 02:05:36;;;;;;;2.80;2.50;;;;;;;21.36;51.24;96077.24;105958;1251;61445;-49
2023/11/12 02:08:05;;;;;;;2.70;2.50;;;;;;;21.35;51.36;96076.09;105722;1251;74548;-49
2023/11/12 02:10:36;;;;;;;3.10;2.80;;;;;;;21.35;51.35;96076.40;106205;1255;66242;-49
2023/11/12 02:13:06;;;;;;;2.70;2.40;;;;;;;21.35;51.35;96074.60;105947;1253;71190;-49
2023/11/12 02:15:34;;;;;;;2.60;2.30;;;;;;;21.35;51.29;96075.55;105882;1257;61221;-49
2023/11/12 02:18:02;;;;;;;2.80;2.40;;;;;;;21.35;51.17;96075.54;105831;1251;61291;-49
2023/11/12 02:20:29;;;;;;;3.70;2.40;;;;;;;21.36;51.36;96070.95;105596;1251;74427;-49
2023/11/12 02:22:57;;;;;;;2.50;2.30;;;;;;;21.35;51.25;96071.57;105556;1256;65862;-49
2023/11/12 02:25:25;;;;;;;2.40;2.20;;;;;;;21.36;51.30;96068.37;105660;1251;72634;-49
2023/11/12 02:27:52;;;;;;;2.50;2.30;;;;;;;21.35;51.42;96062.48;105511;1251;61125;-49
2023/11/12 02:30:20;;;;;;;2.50;2.30;;;;;;;21.35;51.40;96065.90;106242;1253;61195;-50
2023/11/12 02:32:47;;;;;;;4.50;2.60;;;;;;;21.35;51.32;96067.98;108193;1251;74561;-49
2023/11/12 02:35:17;;;;;;;3.10;2.60;;;;;;;21.35;51.14;96066.44;108852;1251;64742;-49
2023/11/12 02:37:45;;;;;;;2.50;2.30;;;;;;;21.35;51.17;96066.21;109578;1251;71428;-49
2023/11/12 02:40:12;;;;;;;2.80;2.30;;;;;;;21.36;51.18;96065.18;106121;1256;61206;-50
2023/11/12 02:42:39;;;;;;;2.90;2.50;;;;;;;21.37;51.33;96064.39;105990;1251;61333;-49
2023/11/12 02:45:10;;;;;;;2.60;2.30;;;;;;;21.37;51.31;96064.08;105928;1251;74550;-49
2023/11/12 02:47:38;;;;;;;2.80;2.60;;;;;;;21.39;51.13;96064.92;105962;1251;64423;-49
2023/11/12 02:50:31;;;;;;;3.00;2.30;;;;;;;21.39;51.20;96067.88;105669;1251;72579;-49
2023/11/12 02:53:03;;;;;;;3.00;2.30;;;;;;;21.38;51.23;96068.59;105948;1256;61361;-49
2023/11/12 02:55:31;;;;;;;2.90;2.50;;;;;;;21.37;51.12;96064.39;106292;1251;61348;-49
2023/11/12 02:57:59;;;;;;;2.80;2.40;;;;;;;21.38;51.16;96068.05;105949;1251;73556;-49
2023/11/12 03:00:27;;;;;;;2.60;2.40;;;;;;;21.38;51.27;96066.02;106026;1251;65379;-49
2023/11/12 03:03:00;;;;;;;3.20;2.70;;;;;;;21.38;51.12;96068.67;105699;1251;72655;-49
2023/11/12 03:05:28;;;;;;;2.90;2.60;;;;;;;21.38;51.12;96067.81;106376;1253;61384;-48
2023/11/12 03:07:59;;;;;;;2.60;2.40;;;;;;;21.38;51.15;96068.13;105795;1251;61254;-48
2023/11/12 03:10:27;;;;;;;2.90;2.50;;;;;;;21.38;51.03;96068.75;106396;1254;74420;-48
2023/11/12 03:12:55;;;;;;;3.00;2.70;;;;;;;21.38;51.22;96070.61;105937;1255;66370;-48
2023/11/12 03:15:23;;;;;;;3.10;2.60;;;;;;;21.37;51.22;96070.38;106423;1255;72679;-48
2023/11/12 03:17:52;;;;;;;3.80;2.70;;;;;;;21.37;51.02;96069.14;105969;1251;61458;-48
2023/11/12 03:20:20;;;;;;;4.00;2.80;;;;;;;21.37;51.11;96069.52;105818;1252;61288;-48
2023/11/12 03:22:47;;;;;;;3.20;2.80;;;;;;;21.37;51.13;96068.83;105991;1253;74787;-48
2023/11/12 03:25:15;;;;;;;3.30;2.20;;;;;;;21.37;51.07;96073.43;105804;1256;66223;-48
2023/11/12 03:27:42;;;;;;;3.10;2.50;;;;;;;21.36;51.18;96071.09;105621;1251;72410;-48
2023/11/12 03:30:12;;;;;;;3.10;2.60;;;;;;;21.35;51.15;96067.36;105603;1256;61314;-48
2023/11/12 03:32:40;;;;;;;2.60;2.40;;;;;;;21.35;51.12;96069.70;105887;1251;61285;-48
2023/11/12 03:35:08;;;;;;;2.70;2.40;;;;;;;21.35;51.11;96072.89;105980;1251;74606;-49
2023/11/12 03:37:36;;;;;;;2.70;2.40;;;;;;;21.35;51.05;96072.67;106001;1251;66328;-49
2023/11/12 03:40:04;;;;;;;3.10;2.80;;;;;;;21.35;51.19;96075.55;105933;1251;72828;-49
2023/11/12 03:42:32;;;;;;;2.50;2.30;;;;;;;21.34;51.27;96076.72;106045;1251;61285;-49
2023/11/12 03:44:59;;;;;;;3.20;2.60;;;;;;;21.34;51.16;96073.91;105824;1251;61227;-49
2023/11/12 03:47:26;;;;;;;2.40;2.20;;;;;;;21.35;51.23;96074.60;105728;1255;74600;-49
2023/11/12 03:49:54;;;;;;;2.30;2.10;;;;;;;21.34;51.20;96071.89;105935;1251;66027;-49
2023/11/12 03:52:21;;;;;;;3.00;2.60;;;;;;;21.34;51.27;96074.70;105959;1251;73102;-50
2023/11/12 03:54:48;;;;;;;3.60;2.60;;;;;;;21.34;51.21;96074.00;105811;1256;61675;-49
2023/11/12 03:57:17;;;;;;;2.70;2.50;;;;;;;21.34;50.99;96075.47;105651;1251;61792;-48
2023/11/12 03:59:44;;;;;;;2.90;2.60;;;;;;;21.34;51.09;96078.98;105589;1251;74486;-49
2023/11/12 04:02:12;;;;;;;2.80;2.50;;;;;;;21.34;51.19;96082.27;105836;1256;65787;-49
2023/11/12 04:04:39;;;;;;;3.00;2.70;;;;;;;21.33;51.14;96087.08;105983;1251;72628;-49
2023/11/12 04:07:08;;;;;;;3.20;2.90;;;;;;;21.33;51.20;96088.48;105929;1256;61253;-49
2023/11/12 04:09:35;;;;;;;2.60;2.30;;;;;;;21.32;51.16;96092.30;105811;1251;61332;-49
2023/11/12 04:12:04;;;;;;;2.50;2.30;;;;;;;21.33;51.19;96096.33;105913;1254;74613;-49
2023/11/12 04:14:31;;;;;;;2.60;2.40;;;;;;;21.32;51.19;96097.29;105804;1251;66302;-49
2023/11/12 04:16:59;;;;;;;3.20;2.60;;;;;;;21.32;51.29;96098.61;105965;1251;72627;-49
2023/11/12 04:19:26;;;;;;;2.90;2.60;;;;;;;21.32;51.04;96097.60;105891;1255;61762;-49
2023/11/12 04:21:54;;;;;;;3.20;2.50;;;;;;;21.31;51.22;96094.89;105821;1251;61368;-49
2023/11/12 04:24:21;;;;;;;3.30;2.70;;;;;;;21.31;51.10;96098.45;105789;1254;74560;-49
2023/11/12 04:26:48;;;;;;;2.70;2.50;;;;;;;21.30;51.23;96094.27;105951;1256;66244;-49
2023/11/12 04:29:16;;;;;;;2.70;2.40;;;;;;;21.30;51.24;96096.44;105691;1251;73592;-49
2023/11/12 04:31:44;;;;;;;3.20;2.80;;;;;;;21.30;51.28;96104.15;105622;1258;61247;-49
2023/11/12 04:34:11;;;;;;;2.70;2.50;;;;;;;21.29;51.17;96102.05;105877;1251;61202;-49
2023/11/12 04:36:38;;;;;;;3.70;2.50;;;;;;;21.29;51.14;96102.73;105959;1254;74471;-49
2023/11/12 04:39:07;;;;;;;3.00;2.60;;;;;;;21.29;51.23;96103.29;105835;1257;65906;-49
2023/11/12 04:41:35;;;;;;;2.50;2.30;;;;;;;21.29;51.09;96107.64;105979;1251;73611;-48
2023/11/12 04:44:02;;;;;;;2.60;2.40;;;;;;;21.30;51.20;96105.46;105760;1255;61961;-48
2023/11/12 04:46:31;;;;;;;3.10;2.70;;;;;;;21.30;51.09;96110.59;105975;1252;61310;-48
2023/11/12 04:48:58;;;;;;;2.70;2.20;;;;;;;21.30;51.18;96115.42;105898;1256;73951;-48
2023/11/12 04:51:26;;;;;;;2.50;2.30;;;;;;;21.30;51.09;96113.79;106054;1254;65977;-48
2023/11/12 04:53:54;;;;;;;2.60;2.40;;;;;;;21.29;51.07;96120.95;105883;1251;72616;-48
2023/11/12 04:56:21;;;;;;;2.60;2.40;;;;;;;21.30;51.19;96128.34;105658;1255;61244;-48
2023/11/12 04:58:49;;;;;;;2.60;2.40;;;;;;;21.28;51.23;96127.89;105672;1257;61251;-48
2023/11/12 05:01:17;;;;;;;3.30;2.50;;;;;;;21.29;51.19;96131.31;105646;1251;74563;-48
2023/11/12 05:03:45;;;;;;;2.90;2.50;;;;;;;21.29;51.20;96138.70;105662;1256;66095;-49
2023/11/12 05:06:14;;;;;;;3.00;2.60;;;;;;;21.28;51.08;96143.91;105634;1251;72592;-49
2023/11/12 05:08:41;;;;;;;2.50;2.30;;;;;;;21.28;51.18;96146.25;106133;1251;61176;-51
2023/11/12 05:11:09;;;;;;;3.10;2.70;;;;;;;21.29;51.12;96149.28;109226;1251;59251;-50
2023/11/12 05:13:37;;;;;;;2.80;2.40;;;;;;;21.29;51.18;96151.61;109456;1251;73244;-49
2023/11/12 05:16:06;;;;;;;2.70;2.50;;;;;;;21.30;51.13;96155.72;108257;1255;64956;-50
2023/11/12 05:18:34;;;;;;;3.20;2.50;;;;;;;21.31;51.16;96158.98;105817;1254;72600;-48
2023/11/12 05:21:01;;;;;;;2.60;2.40;;;;;;;21.31;51.23;96159.91;106032;1257;61253;-48
2023/11/12 05:23:29;;;;;;;2.30;2.10;;;;;;;21.33;51.17;96166.75;105761;1257;61196;-48
2023/11/12 05:25:58;;;;;;;2.90;2.50;;;;;;;21.33;51.18;96171.58;105894;1254;74761;-48
2023/11/12 05:28:27;;;;;;;2.80;2.40;;;;;;;21.33;51.08;96170.86;105914;1255;66094;-49
2023/11/12 05:30:58;;;;;;;3.00;2.70;;;;;;;21.33;51.04;96175.08;105657;1251;72641;-49
2023/11/12 05:33:25;;;;;;;3.10;2.50;;;;;;;21.33;51.02;96178.65;105747;1254;61365;-49
2023/11/12 05:35:53;;;;;;;2.70;2.40;;;;;;;21.33;51.19;96179.28;105960;1254;61333;-49
2023/11/12 05:38:20;;;;;;;3.10;2.30;;;;;;;21.32;51.01;96183.24;105987;1255;74409;-49
2023/11/12 05:40:48;;;;;;;3.80;2.30;;;;;;;21.33;51.06;96188.77;106025;1256;67181;-49
2023/11/12 05:43:15;;;;;;;3.00;2.70;;;;;;;21.33;51.04;96191.73;105975;1252;72757;-49
2023/11/12 05:45:42;;;;;;;2.80;2.40;;;;;;;21.32;51.05;96193.98;106003;1256;61100;-48
2023/11/12 05:48:10;;;;;;;2.50;2.30;;;;;;;21.32;51.05;96198.02;105890;1256;61224;-49
2023/11/12 05:50:38;;;;;;;2.70;2.50;;;;;;;21.30;51.04;96197.04;106081;1254;74569;-49
2023/11/12 05:53:05;;;;;;;2.80;2.50;;;;;;;21.30;51.19;96200.45;105978;1255;66293;-49
2023/11/12 05:55:33;;;;;;;2.70;2.30;;;;;;;21.30;51.14;96207.93;105947;1251;72585;-49
2023/11/12 05:58:00;;;;;;;3.30;2.90;;;;;;;21.30;51.04;96208.85;105747;1256;61342;-49
2023/11/12 06:00:27;;;;;;;2.50;2.30;;;;;;;21.30;51.04;96212.52;106079;1251;61150;-49
2023/11/12 06:02:55;;;;;;;2.70;2.50;;;;;;;21.29;51.12;96213.52;105677;1251;74894;-48
2023/11/12 06:05:23;;;;;;;2.90;2.40;;;;;;;21.29;51.03;96220.67;105792;1255;66210;-48
2023/11/12 06:07:51;;;;;;;2.80;2.60;;;;;;;21.29;51.20;96220.98;105617;1256;73375;-48
2023/11/12 06:10:18;;;;;;;2.50;2.30;;;;;;;21.28;51.06;96227.31;105780;1256;61202;-48
2023/11/12 06:12:45;;;;;;;3.00;2.30;;;;;;;21.28;51.10;96226.14;105655;1254;61333;-48
2023/11/12 06:15:13;;;;;;;2.60;2.40;;;;;;;21.28;51.21;96227.32;105824;1256;74598;-48
2023/11/12 06:17:40;;;;;;;3.00;2.60;;;;;;;21.28;51.12;96230.04;105822;1256;65444;-48
2023/11/12 06:20:08;;;;;;;2.40;2.20;;;;;;;21.28;51.00;96234.23;106455;1251;72661;-48
2023/11/12 06:22:36;;;;;;;2.60;2.40;;;;;;;21.28;51.03;96237.11;105709;1251;61230;-48
2023/11/12 06:25:04;;;;;;;2.90;2.60;;;;;;;21.28;51.05;96236.65;105882;1256;61310;-48
2023/11/12 06:27:32;;;;;;;2.90;2.60;;;;;;;21.27;51.01;96235.80;106020;1257;74551;-48
2023/11/12 06:30:02;;;;;;;2.60;2.40;;;;;;;21.28;51.16;96237.58;105928;1257;65936;-48
2023/11/12 06:32:30;;;;;;;2.90;2.70;;;;;;;21.27;51.22;96236.88;105871;1251;72598;-48
2023/11/12 06:34:57;;;;;;;2.70;2.50;;;;;;;21.27;51.30;96238.60;105778;1257;61374;-48
2023/11/12 06:37:25;;;;;;;3.70;2.60;;;;;;;21.26;51.18;96240.25;105929;1251;61276;-48
2023/11/12 06:39:52;;;;;;;2.60;2.40;;;;;;;21.27;51.07;96241.79;105999;1252;74559;-48
2023/11/12 06:42:20;;;;;;;2.70;2.50;;;;;;;21.27;51.20;96243.44;105866;1255;65966;-48
2023/11/12 06:44:49;;;;;;;3.10;2.70;;;;;;;21.27;51.14;96244.28;105843;1254;72427;-48
2023/11/12 06:47:16;;;;;;;3.40;2.80;;;;;;;21.27;51.18;96246.23;105940;1256;61247;-48
2023/11/12 06:49:43;;;;;;;2.90;2.50;;;;;;;21.26;51.05;96248.96;105961;1251;61918;-48
2023/11/12 06:52:11;;;;;;;3.30;2.60;;;;;;;21.26;51.07;96251.92;106016;1251;74293;-48
2023/11/12 06:54:40;;;;;;;2.60;2.40;;;;;;;21.26;50.99;96251.45;105839;1256;65987;-48
2023/11/12 06:57:07;;;;;;;2.40;2.20;;;;;;;21.26;51.09;96255.33;105966;1253;71437;-48
2023/11/12 06:59:35;;;;;;;2.60;2.40;;;;;;;21.25;51.13;96253.16;105952;1255;61304;-48
2023/11/12 07:02:02;;;;;;;2.80;2.50;;;;;;;21.25;50.97;96258.21;105980;1254;61192;-48
2023/11/12 07:04:30;;;;;;;2.70;2.50;;;;;;;21.25;51.11;96262.34;105953;1256;74520;-48
2023/11/12 07:06:57;;;;;;;2.80;2.40;;;;;;;21.25;51.11;96261.02;105973;1254;66228;-47
2023/11/12 07:09:40;;;;;;;3.90;2.80;;;;;;;21.25;51.15;96269.58;105898;1251;72378;-47
2023/11/12 07:12:07;;;;;;;2.60;2.40;;;;;;;21.24;51.06;96269.91;105955;1256;61282;-48
2023/11/12 07:14:34;;;;;;;2.50;2.20;;;;;;;21.24;51.00;96276.35;105777;1251;61148;-48
2023/11/12 07:17:02;;;;;;;2.50;2.30;;;;;;;21.24;51.11;96276.35;105883;1252;74295;-49
2023/11/12 07:19:30;;;;;;;3.10;2.40;;;;;;;21.24;51.15;96278.77;105697;1255;65399;-48
2023/11/12 07:21:58;;;;;;;2.90;2.30;;;;;;;21.25;50.99;96281.02;105784;1255;72614;-48
2023/11/12 07:24:25;;;;;;;2.50;2.30;;;;;;;21.24;51.08;96285.21;105772;1256;61234;-48
2023/11/12 07:26:53;;;;;;;2.80;2.50;;;;;;;21.24;51.13;96290.90;105742;1254;61194;-50
2023/11/12 07:29:20;;;;;;;2.50;2.30;;;;;;;21.24;51.16;96289.42;105727;1256;74589;-48
2023/11/12 07:31:47;;;;;;;4.90;2.40;;;;;;;21.24;51.06;96288.95;105602;1256;66092;-48
2023/11/12 07:34:14;;;;;;;2.50;2.30;;;;;;;21.24;51.20;96289.73;105595;1251;72382;-48
2023/11/12 07:36:42;;;;;;;2.50;2.30;;;;;;;21.24;51.02;96292.23;105792;1256;61241;-48
2023/11/12 07:39:12;;;;;;;2.60;2.40;;;;;;;21.24;51.12;96295.88;105862;1251;61375;-48
2023/11/12 07:41:40;;;;;;;2.60;2.40;;;;;;;21.24;51.14;96296.73;105951;1252;74561;-48
2023/11/12 07:44:09;;;;;;;2.80;2.60;;;;;;;21.24;51.15;96302.27;105923;1254;66286;-50
2023/11/12 07:46:41;;;;;;;2.70;2.30;;;;;;;21.25;51.16;96303.19;107073;1251;72659;-48
2023/11/12 07:49:09;;;;;;;2.90;2.60;;;;;;;21.24;51.10;96307.79;109054;1254;61093;-47
2023/11/12 07:51:39;;;;;;;2.90;2.50;;;;;;;21.25;51.15;96309.56;109499;1251;59028;-48
2023/11/12 07:54:06;;;;;;;2.70;2.40;;;;;;;21.26;51.07;96310.49;107269;1252;73404;-50
2023/11/12 07:56:34;;;;;;;3.10;2.70;;;;;;;21.26;51.13;96311.89;105901;1256;65055;-49
2023/11/12 07:59:08;;;;;;;2.60;2.40;;;;;;;21.27;51.03;96313.67;105920;1251;72630;-47
2023/11/12 08:01:35;;;;;;;3.10;2.30;;;;;;;21.28;51.02;96319.26;105843;1256;61231;-50
2023/11/12 08:04:03;;;;;;;3.10;2.40;;;;;;;21.28;51.08;96321.75;105777;1251;61227;-48
2023/11/12 08:06:30;;;;;;;3.10;2.30;;;;;;;21.28;51.00;96320.98;105890;1255;74576;-48
2023/11/12 08:08:59;;;;;;;2.80;2.50;;;;;;;21.28;50.91;96328.05;105989;1256;67277;-48
2023/11/12 08:11:27;;;;;;;3.00;2.60;;;;;;;21.28;51.03;96330.46;105943;1251;72403;-48
2023/11/12 08:13:55;;;;;;;3.00;2.40;;;;;;;21.27;50.85;96333.96;105861;1257;61241;-48
2023/11/12 08:16:23;;;;;;;3.20;2.40;;;;;;;21.27;50.90;96335.77;105875;1251;61243;-48
2023/11/12 08:18:51;;;;;;;2.80;2.60;;;;;;;21.27;50.97;96343.23;105737;1256;75400;-48
2023/11/12 08:21:21;;;;;;;3.20;2.20;;;;;;;21.27;50.95;96348.44;105659;1251;66152;-48
2023/11/12 08:23:48;;;;;;;3.70;2.50;;;;;;;21.27;50.99;96352.88;105940;1251;72599;-48
2023/11/12 08:26:16;;;;;;;3.10;2.80;;;;;;;21.26;50.91;96357.17;105696;1256;61234;-48
2023/11/12 08:28:43;;;;;;;2.60;2.40;;;;;;;21.26;51.08;96357.87;105668;1251;61356;-49
2023/11/12 08:31:10;;;;;;;2.70;2.50;;;;;;;21.25;51.02;96361.44;105579;1254;75545;-49
2023/11/12 08:33:38;;;;;;;4.40;2.70;;;;;;;21.25;50.98;96369.77;105651;1256;67233;-49
2023/11/12 08:36:07;;;;;;;2.40;2.20;;;;;;;21.25;51.02;96370.40;105688;1256;72592;-48
2023/11/12 08:38:35;;;;;;;2.50;2.30;;;;;;;21.25;51.00;96370.71;105775;1251;61368;-49
2023/11/12 08:41:04;;;;;;;2.60;2.40;;;;;;;21.25;50.97;96370.31;105940;1254;61329;-49
2023/11/12 08:43:32;;;;;;;2.60;2.40;;;;;;;21.25;51.02;96372.02;105836;1252;75158;-49
2023/11/12 08:46:00;;;;;;;3.00;2.30;;;;;;;21.25;51.04;96372.56;105925;1255;65859;-48
2023/11/12 08:48:31;;;;;;;3.60;2.50;;;;;;;21.25;51.14;96371.86;105841;1251;72766;-48
2023/11/12 08:51:00;;;;;;;3.40;2.40;;;;;;;21.25;50.94;96373.66;105735;1256;61514;-49
2023/11/12 08:53:28;;;;;;;2.80;2.50;;;;;;;21.24;51.10;96371.58;105812;1256;61156;-48
2023/11/12 08:55:56;;;;;;;2.70;2.30;;;;;;;21.24;51.12;96375.23;105767;1256;75596;-49
2023/11/12 08:58:24;;;;;;;4.00;2.40;;;;;;;21.23;51.10;96377.17;105781;1256;65943;-49
2023/11/12 09:00:52;;;;;;;2.50;2.30;;;;;;;21.23;51.00;96379.51;105573;1254;252529;-50
2023/11/12 09:03:19;;;;;;;2.90;2.40;;;;;;;21.23;50.93;96380.13;105792;1256;61234;-49
2023/11/12 09:05:47;;;;;;;2.50;2.30;;;;;;;21.23;51.02;96378.64;105963;1254;61240;-48
2023/11/12 09:08:15;;;;;;;2.90;2.40;;;;;;;21.23;50.93;96381.37;105699;1255;74381;-49
2023/11/12 09:10:43;;;;;;;2.80;2.40;;;;;;;21.23;51.00;96385.34;105775;1256;65492;-49
2023/11/12 09:13:10;;;;;;;2.80;2.50;;;;;;;21.22;51.16;96389.15;105758;1254;72389;-49
2023/11/12 09:15:37;;;;;;;2.50;2.30;;;;;;;21.22;51.02;96392.96;106112;1256;61211;-49
2023/11/12 09:18:05;;;;;;;2.80;2.50;;;;;;;21.22;51.02;96390.70;105830;1254;61316;-49
2023/11/12 09:20:32;;;;;;;2.70;2.50;;;;;;;21.22;51.06;96393.75;106003;1251;73807;-49
2023/11/12 09:23:00;;;;;;;4.50;2.80;;;;;;;21.22;51.08;96391.73;105990;1255;65548;-49
2023/11/12 09:25:27;;;;;;;4.70;2.70;;;;;;;21.22;51.11;96394.29;105809;1254;72340;-48
2023/11/12 09:27:55;;;;;;;2.70;2.40;;;;;;;21.21;51.03;96398.03;105938;1256;61257;-48
2023/11/12 09:30:23;;;;;;;2.20;2.00;;;;;;;21.21;51.02;96405.11;106395;1255;61113;-48
2023/11/12 09:32:52;;;;;;;2.80;2.40;;;;;;;21.22;51.21;96410.87;105875;1255;74635;-48
2023/11/12 09:35:19;;;;;;;2.70;2.50;;;;;;;21.22;51.08;96410.85;105738;1255;65928;-49
2023/11/12 09:37:49;;;;;;;2.50;2.20;;;;;;;21.21;51.07;96411.34;105710;1256;72702;-47
2023/11/12 09:40:16;;;;;;;2.60;2.40;;;;;;;21.22;51.04;96415.22;105900;1255;61257;-48
2023/11/12 09:42:48;;;;;;;2.80;2.50;;;;;;;21.21;51.18;96417.63;105663;1254;61368;-48
2023/11/12 09:45:15;;;;;;;2.80;2.40;;;;;;;21.21;51.06;96419.89;105683;1256;74608;-48
2023/11/12 09:47:43;;;;;;;3.40;2.20;;;;;;;21.21;51.04;96422.14;105775;1258;66112;-48
2023/11/12 09:50:10;;;;;;;2.80;2.50;;;;;;;21.21;51.03;96424.63;105924;1254;72421;-47
2023/11/12 09:52:38;;;;;;;4.00;2.80;;;;;;;21.21;51.06;96428.60;105892;1258;61612;-47
2023/11/12 09:55:06;;;;;;;2.60;2.30;;;;;;;21.21;51.12;96428.52;105714;1257;61330;-50
2023/11/12 09:57:34;;;;;;;3.20;2.60;;;;;;;21.21;51.07;96429.30;105802;1254;74597;-49
2023/11/12 10:00:01;;;;;;;2.40;2.20;;;;;;;21.20;51.11;96428.20;105703;1257;63908;-49
2023/11/12 10:02:35;;;;;;;2.80;2.40;;;;;;;21.21;51.03;96430.39;105557;1254;73064;-48
2023/11/12 10:05:04;;;;;;;2.40;2.20;;;;;;;21.20;51.07;96431.71;105734;1256;61256;-48
2023/11/12 10:07:32;;;;;;;2.60;2.40;;;;;;;21.20;50.92;96430.46;105856;1251;61317;-48
2023/11/12 10:10:23;;;;;;;2.60;2.40;;;;;;;21.21;51.02;96432.19;105619;1252;76091;-48
2023/11/12 10:12:52;;;;;;;3.00;2.60;;;;;;;21.20;51.03;96434.83;105897;1256;65697;-48
2023/11/12 10:15:23;;;;;;;2.70;2.30;;;;;;;21.21;50.95;96435.84;105863;1254;73485;-48
2023/11/12 10:17:54;;;;;;;2.60;2.40;;;;;;;21.20;50.97;96443.07;105720;1257;61237;-48
2023/11/12 10:20:29;;;;;;;3.40;2.10;;;;;;;21.20;51.05;96440.89;105740;1254;61346;-48
2023/11/12 10:22:57;;;;;;;2.60;2.40;;;;;;;21.20;51.07;96442.84;105892;1254;74576;-53
2023/11/12 10:25:47;;;;;;;3.00;2.50;;;;;;;21.20;50.89;96446.34;108906;1251;67012;-49
2023/11/12 10:28:15;;;;;;;2.50;2.30;;;;;;;21.21;51.01;96443.61;109494;1251;72842;-48
2023/11/12 10:30:43;;;;;;;2.80;2.50;;;;;;;21.21;50.96;96443.23;108255;1257;61279;-49
2023/11/12 10:33:17;;;;;;;2.20;2.00;;;;;;;21.22;51.01;96444.85;105667;1254;61355;-49
2023/11/12 10:35:46;;;;;;;3.30;2.40;;;;;;;21.23;51.10;96447.26;105875;1251;73130;-48
2023/11/12 10:38:15;;;;;;;3.00;2.50;;;;;;;21.23;51.00;96450.77;105870;1256;66140;-48
2023/11/12 10:41:02;;;;;;;2.40;2.10;;;;;;;21.24;51.03;96457.14;105976;1251;72577;-48
2023/11/12 10:43:30;;;;;;;2.90;2.40;;;;;;;21.24;50.88;96453.48;105792;1254;61288;-49
2023/11/12 10:46:06;;;;;;;2.60;2.40;;;;;;;21.24;50.90;96457.38;105757;1255;61235;-48
2023/11/12 10:48:35;;;;;;;2.60;2.40;;;;;;;21.23;50.99;96460.71;105942;1254;73149;-48
2023/11/12 10:51:05;;;;;;;3.10;2.50;;;;;;;21.23;50.99;96457.52;105801;1251;67451;-48
2023/11/12 10:53:34;;;;;;;2.80;2.30;;;;;;;21.23;51.08;96463.67;105735;1256;72877;-48
2023/11/12 10:56:02;;;;;;;2.40;2.20;;;;;;;21.23;50.93;96464.30;105913;1256;61378;-49
2023/11/12 10:58:30;;;;;;;2.70;2.50;;;;;;;21.23;50.85;96466.33;105833;1251;61218;-49
2023/11/12 11:01:01;;;;;;;2.40;2.20;;;;;;;21.23;51.04;96475.89;105779;1251;74547;-48
2023/11/12 11:03:30;;;;;;;3.00;2.70;;;;;;;21.23;50.82;96483.27;105732;1256;66345;-49
2023/11/12 11:06:02;;;;;;;2.80;2.50;;;;;;;21.22;50.84;96490.52;105868;1254;72799;-49
2023/11/12 11:08:31;;;;;;;3.50;2.60;;;;;;;21.22;51.02;96495.48;105862;1256;61225;-49
2023/11/12 11:10:59;;;;;;;2.40;2.20;;;;;;;21.22;51.05;96501.41;105704;1256;61243;-49
2023/11/12 11:13:26;;;;;;;2.50;2.30;;;;;;;21.22;50.95;96508.55;105739;1259;74605;-49
2023/11/12 11:15:55;;;;;;;2.40;2.20;;;;;;;21.22;50.77;96509.73;105772;1254;66391;-49
2023/11/12 11:18:32;;;;;;;2.60;2.20;;;;;;;21.22;50.96;96516.49;105823;1252;72588;-48
2023/11/12 11:21:06;;;;;;;3.30;2.70;;;;;;;21.21;51.05;96516.73;105975;1257;61260;-47
2023/11/12 11:23:43;;;;;;;2.40;2.20;;;;;;;21.21;51.03;96514.80;105861;1252;61238;-50
2023/11/12 11:26:29;;;;;;;2.40;2.20;;;;;;;21.21;50.87;96517.83;105781;1256;74271;-50
2023/11/12 11:29:09;;;;;;;2.50;2.30;;;;;;;21.21;50.96;96518.60;105917;1256;65499;-48
2023/11/12 11:31:38;;;;;;;3.00;2.30;;;;;;;21.20;51.04;96520.64;105679;1257;72597;-48